Time;durP1;ratioP1;P1;durP2;ratioP2;P2;SDS_P1;SDS_P2;PMS_P1;PMS_P2;Temp;Humidity;BMP_temperature;BMP_pressure;BME280_temperature;BME280_humidity;BME280_pressure;Samples;Min_cycle;Max_cycle;Signal;HPM_P1;HPM_P2
2022/03/17 00:01:06;;;;;;;70.43;53.17;;;;;;;;;;4956686;28;20055;-62
2022/03/17 00:03:34;;;;;;;66.03;50.55;;;;;;;;;;4956211;28;20054;-62
2022/03/17 00:06:02;;;;;;;65.45;51.72;;;;;;;;;;4955691;29;20065;-62
2022/03/17 00:08:33;;;;;;;68.85;51.75;;;;;;;;;;4952420;28;20058;-62
2022/03/17 00:11:03;;;;;;;60.08;49.40;;;;;;;;;;4956060;28;20451;-62
2022/03/17 00:13:31;;;;;;;72.38;52.72;;;;;;;;;;4951236;29;20063;-62
2022/03/17 00:15:59;;;;;;;66.57;52.40;;;;;;;;;;4956545;29;20054;-62
2022/03/17 00:18:28;;;;;;;68.10;52.53;;;;;;;;;;4956280;29;20384;-62
2022/03/17 00:20:59;;;;;;;66.78;51.08;;;;;;;;;;4956630;28;20466;-62
2022/03/17 00:23:27;;;;;;;71.90;55.55;;;;;;;;;;4956463;29;20455;-62
2022/03/17 00:25:56;;;;;;;68.80;52.28;;;;;;;;;;4956533;29;20048;-62
2022/03/17 00:28:25;;;;;;;64.50;52.05;;;;;;;;;;4956255;28;20459;-62
2022/03/17 00:31:01;;;;;;;68.22;51.30;;;;;;;;;;4956715;28;20049;-62
2022/03/17 00:33:31;;;;;;;70.93;51.58;;;;;;;;;;4956184;28;20094;-62
2022/03/17 00:35:59;;;;;;;70.35;55.10;;;;;;;;;;4971253;28;20055;-62
2022/03/17 00:38:28;;;;;;;70.35;54.17;;;;;;;;;;4956286;28;20552;-62
2022/03/17 00:40:57;;;;;;;70.97;53.60;;;;;;;;;;4956291;28;20110;-62
2022/03/17 00:43:28;;;;;;;65.63;52.45;;;;;;;;;;4956171;28;20426;-62
2022/03/17 00:45:57;;;;;;;70.88;52.25;;;;;;;;;;4956391;28;20073;-62
2022/03/17 00:48:26;;;;;;;67.80;51.65;;;;;;;;;;4950402;29;20052;-62
2022/03/17 00:50:55;;;;;;;65.22;53.33;;;;;;;;;;4955501;29;20086;-61
2022/03/17 00:53:24;;;;;;;67.70;52.88;;;;;;;;;;4955235;28;20066;-62
2022/03/17 00:55:53;;;;;;;70.55;53.47;;;;;;;;;;4955769;28;20172;-62
2022/03/17 00:58:22;;;;;;;67.85;53.60;;;;;;;;;;4956121;28;20567;-62
2022/03/17 01:00:51;;;;;;;65.35;52.40;;;;;;;;;;4955013;29;20422;-62
2022/03/17 01:03:21;;;;;;;65.47;49.45;;;;;;;;;;4955532;29;20067;-62
2022/03/17 01:05:51;;;;;;;67.15;52.92;;;;;;;;;;4955042;28;20047;-61
2022/03/17 01:08:19;;;;;;;62.72;49.47;;;;;;;;;;4955573;29;20053;-61
2022/03/17 01:10:49;;;;;;;70.72;54.22;;;;;;;;;;4949949;29;20043;-61
2022/03/17 01:13:18;;;;;;;64.82;53.03;;;;;;;;;;4955829;29;20058;-61
2022/03/17 01:15:47;;;;;;;65.32;50.35;;;;;;;;;;4955552;28;20138;-61
2022/03/17 01:18:15;;;;;;;66.63;51.90;;;;;;;;;;4954674;29;20065;-61
2022/03/17 01:20:44;;;;;;;73.78;51.75;;;;;;;;;;4953978;29;20055;-61
2022/03/17 01:23:13;;;;;;;63.05;49.78;;;;;;;;;;4954784;28;20043;-61
2022/03/17 01:25:41;;;;;;;66.20;50.67;;;;;;;;;;4955038;28;20055;-62
2022/03/17 01:28:08;;;;;;;72.50;52.95;;;;;;;;;;4952888;29;20521;-62
2022/03/17 01:30:37;;;;;;;69.85;53.22;;;;;;;;;;4954666;28;20205;-61
2022/03/17 01:33:06;;;;;;;67.38;49.80;;;;;;;;;;4953549;29;20047;-62
2022/03/17 01:35:34;;;;;;;66.55;52.70;;;;;;;;;;4954761;28;20384;-62
2022/03/17 01:38:03;;;;;;;63.95;48.40;;;;;;;;;;4950166;29;20059;-62
2022/03/17 01:40:31;;;;;;;64.70;50.25;;;;;;;;;;4954701;29;20522;-61
2022/03/17 01:43:00;;;;;;;68.35;51.83;;;;;;;;;;4954746;28;20055;-62
2022/03/17 01:45:29;;;;;;;59.35;48.78;;;;;;;;;;4954614;29;20055;-61
2022/03/17 01:47:57;;;;;;;62.30;48.30;;;;;;;;;;4955032;28;20071;-61
2022/03/17 01:50:24;;;;;;;66.53;51.03;;;;;;;;;;4951260;29;20494;-64
2022/03/17 01:52:52;;;;;;;62.67;51.17;;;;;;;;;;4954555;28;20117;-61
2022/03/17 01:55:21;;;;;;;65.57;50.30;;;;;;;;;;4954590;28;20050;-61
2022/03/17 01:57:50;;;;;;;67.65;52.35;;;;;;;;;;4951604;29;20112;-61
2022/03/17 02:00:19;;;;;;;68.78;52.45;;;;;;;;;;4954472;29;20056;-60
2022/03/17 02:02:51;;;;;;;65.60;51.78;;;;;;;;;;4954027;29;20079;-61
2022/03/17 02:05:21;;;;;;;63.92;49.75;;;;;;;;;;4955059;29;20059;-62
2022/03/17 02:07:50;;;;;;;64.57;48.22;;;;;;;;;;4954357;28;20051;-62
2022/03/17 02:10:21;;;;;;;64.13;49.80;;;;;;;;;;4954740;28;20059;-62
2022/03/17 02:15:36;;;;;;;59.70;48.15;;;;;;;;;;4952437;29;20066;-62
2022/03/17 02:18:08;;;;;;;62.80;48.42;;;;;;;;;;4954434;28;20075;-62
2022/03/17 02:20:38;;;;;;;62.38;48.33;;;;;;;;;;4954565;28;20059;-62
2022/03/17 02:26:01;;;;;;;66.47;49.72;;;;;;;;;;4954517;28;20402;-62
2022/03/17 02:28:31;;;;;;;68.57;50.30;;;;;;;;;;4958630;28;20051;-64
2022/03/17 02:31:01;;;;;;;63.75;49.55;;;;;;;;;;4954853;28;20051;-61
2022/03/17 02:33:30;;;;;;;66.93;50.63;;;;;;;;;;4957763;28;20494;-61
2022/03/17 02:35:57;;;;;;;64.50;51.25;;;;;;;;;;4957861;29;20060;-61
2022/03/17 02:38:26;;;;;;;61.17;47.70;;;;;;;;;;4952233;29;20070;-61
2022/03/17 02:40:54;;;;;;;67.97;50.28;;;;;;;;;;4957843;29;20447;-61
2022/03/17 02:43:22;;;;;;;66.80;51.90;;;;;;;;;;4957793;29;20069;-61
2022/03/17 02:45:50;;;;;;;66.30;47.53;;;;;;;;;;4957841;29;20047;-61
2022/03/17 02:48:19;;;;;;;68.13;50.28;;;;;;;;;;4958145;29;20055;-61
2022/03/17 02:50:48;;;;;;;61.42;49.42;;;;;;;;;;4957185;29;20470;-61
2022/03/17 02:53:17;;;;;;;67.03;49.38;;;;;;;;;;4957732;29;20055;-61
2022/03/17 02:55:47;;;;;;;60.33;47.60;;;;;;;;;;4957460;29;20051;-61
2022/03/17 02:58:15;;;;;;;62.75;47.08;;;;;;;;;;4957526;28;20129;-61
2022/03/17 03:00:45;;;;;;;66.90;48.85;;;;;;;;;;4957642;28;20055;-61
2022/03/17 03:03:17;;;;;;;59.78;46.45;;;;;;;;;;4957173;29;20533;-60
2022/03/17 03:05:46;;;;;;;61.33;47.47;;;;;;;;;;4957487;29;20054;-61
2022/03/17 03:08:14;;;;;;;65.15;47.35;;;;;;;;;;4957316;28;20139;-61
2022/03/17 03:10:44;;;;;;;66.72;48.72;;;;;;;;;;4957031;28;20147;-61
2022/03/17 03:13:12;;;;;;;61.08;49.92;;;;;;;;;;4957206;28;20546;-61
2022/03/17 03:15:42;;;;;;;67.80;49.00;;;;;;;;;;4957755;29;20058;-61
2022/03/17 03:18:10;;;;;;;59.35;48.15;;;;;;;;;;4957939;29;20059;-61
2022/03/17 03:20:40;;;;;;;64.40;49.45;;;;;;;;;;4957658;28;20094;-61
2022/03/17 03:23:08;;;;;;;63.67;48.05;;;;;;;;;;4957336;29;20074;-61
2022/03/17 03:25:38;;;;;;;62.50;46.28;;;;;;;;;;4957535;29;20502;-60
2022/03/17 03:28:10;;;;;;;58.47;45.40;;;;;;;;;;4957409;28;20486;-60
2022/03/17 03:30:39;;;;;;;69.22;48.88;;;;;;;;;;4972289;28;20059;-60
2022/03/17 03:33:07;;;;;;;62.58;47.85;;;;;;;;;;4957398;29;20475;-61
2022/03/17 03:38:23;;;;;;;67.38;48.67;;;;;;;;;;4957308;28;20518;-61
2022/03/17 03:40:52;;;;;;;60.03;49.25;;;;;;;;;;4957621;28;20505;-61
2022/03/17 03:43:20;;;;;;;63.53;46.58;;;;;;;;;;4957253;28;20070;-61
2022/03/17 03:45:50;;;;;;;64.88;50.17;;;;;;;;;;4957290;28;20051;-61
2022/03/17 03:48:18;;;;;;;64.35;48.85;;;;;;;;;;4957730;28;20078;-61
2022/03/17 03:50:46;;;;;;;73.05;50.90;;;;;;;;;;4956031;29;20156;-62
2022/03/17 03:53:15;;;;;;;62.92;47.75;;;;;;;;;;4955726;29;20087;-61
2022/03/17 03:55:43;;;;;;;64.00;52.95;;;;;;;;;;4955826;29;20056;-61
2022/03/17 03:58:11;;;;;;;61.08;47.78;;;;;;;;;;4954691;29;20091;-61
2022/03/17 04:00:41;;;;;;;61.72;49.60;;;;;;;;;;4956766;28;20099;-62
2022/03/17 04:03:11;;;;;;;68.05;50.60;;;;;;;;;;4956966;28;20086;-61
2022/03/17 04:05:38;;;;;;;65.53;47.67;;;;;;;;;;4956783;28;20071;-61
2022/03/17 04:08:08;;;;;;;65.97;50.90;;;;;;;;;;4956737;28;20483;-62
2022/03/17 04:10:37;;;;;;;64.70;50.83;;;;;;;;;;4956521;28;20106;-61
2022/03/17 04:13:10;;;;;;;69.32;52.40;;;;;;;;;;4956586;28;20511;-61
2022/03/17 04:15:38;;;;;;;74.22;53.10;;;;;;;;;;4956231;28;20075;-62
2022/03/17 04:18:08;;;;;;;69.18;51.95;;;;;;;;;;4956970;28;20055;-61
2022/03/17 04:20:37;;;;;;;66.05;50.88;;;;;;;;;;4957104;28;20054;-61
2022/03/17 04:23:05;;;;;;;74.43;55.33;;;;;;;;;;4956714;28;20090;-61
2022/03/17 04:25:34;;;;;;;65.95;52.03;;;;;;;;;;4956591;28;20055;-61
2022/03/17 04:28:05;;;;;;;67.43;53.38;;;;;;;;;;4956273;28;20503;-61
2022/03/17 04:30:36;;;;;;;65.82;53.15;;;;;;;;;;4956740;28;20125;-61
2022/03/17 04:33:07;;;;;;;72.03;53.78;;;;;;;;;;4956594;28;20080;-61
2022/03/17 04:35:36;;;;;;;74.18;53.67;;;;;;;;;;4956034;28;20059;-61
2022/03/17 04:38:04;;;;;;;75.90;56.47;;;;;;;;;;4956035;28;20066;-60
2022/03/17 04:40:33;;;;;;;72.68;54.50;;;;;;;;;;4952027;28;20410;-61
2022/03/17 04:43:01;;;;;;;70.72;52.88;;;;;;;;;;4955224;28;20407;-61
2022/03/17 04:45:30;;;;;;;71.68;55.75;;;;;;;;;;4955951;28;20391;-62
2022/03/17 04:47:59;;;;;;;71.75;54.05;;;;;;;;;;4956200;29;20051;-60
2022/03/17 04:50:27;;;;;;;70.45;54.90;;;;;;;;;;4954422;28;20051;-61
2022/03/17 04:55:43;;;;;;;74.00;55.08;;;;;;;;;;4956035;28;20047;-61
2022/03/17 04:58:12;;;;;;;68.28;52.47;;;;;;;;;;4955617;29;20047;-61
2022/03/17 05:00:44;;;;;;;74.90;54.22;;;;;;;;;;4955853;28;20079;-63
2022/03/17 05:03:30;;;;;;;67.25;52.38;;;;;;;;;;4955241;29;20058;-61
2022/03/17 05:05:59;;;;;;;84.35;56.85;;;;;;;;;;4955888;28;20079;-61
2022/03/17 05:08:26;;;;;;;69.97;55.25;;;;;;;;;;4955947;28;20110;-61
2022/03/17 05:10:54;;;;;;;77.88;56.42;;;;;;;;;;4955827;28;20055;-61
2022/03/17 05:13:23;;;;;;;77.45;57.97;;;;;;;;;;4955816;28;20129;-61
2022/03/17 05:15:52;;;;;;;70.38;54.45;;;;;;;;;;4955451;29;20055;-61
2022/03/17 05:18:23;;;;;;;72.38;54.15;;;;;;;;;;4955566;29;20130;-61
2022/03/17 05:20:52;;;;;;;75.47;57.28;;;;;;;;;;4955878;28;20079;-61
2022/03/17 05:23:22;;;;;;;70.28;53.72;;;;;;;;;;4955846;28;20050;-61
2022/03/17 05:25:50;;;;;;;74.38;56.00;;;;;;;;;;4955734;28;20047;-61
2022/03/17 05:28:20;;;;;;;74.13;57.80;;;;;;;;;;4955467;29;20051;-61
2022/03/17 05:30:48;;;;;;;78.60;54.83;;;;;;;;;;4955765;28;20514;-61
2022/03/17 05:33:16;;;;;;;70.65;53.40;;;;;;;;;;4955365;28;20501;-61
2022/03/17 05:35:45;;;;;;;72.50;55.97;;;;;;;;;;4955366;29;20097;-61
2022/03/17 05:38:14;;;;;;;82.32;59.75;;;;;;;;;;4955644;29;20113;-61
2022/03/17 05:40:44;;;;;;;74.13;59.58;;;;;;;;;;4955477;29;20058;-61
2022/03/17 05:43:12;;;;;;;74.25;55.42;;;;;;;;;;4954937;29;20047;-61
2022/03/17 05:45:47;;;;;;;79.53;57.13;;;;;;;;;;4955349;29;20055;-61
2022/03/17 05:48:22;;;;;;;77.85;58.92;;;;;;;;;;4955157;29;20102;-61
2022/03/17 05:50:50;;;;;;;79.03;60.00;;;;;;;;;;4955390;29;20051;-61
2022/03/17 05:53:19;;;;;;;81.03;59.65;;;;;;;;;;4955091;29;20063;-62
2022/03/17 05:55:49;;;;;;;78.88;59.42;;;;;;;;;;4954992;29;20451;-62
2022/03/17 05:58:18;;;;;;;78.28;58.42;;;;;;;;;;4954613;29;20051;-62
2022/03/17 06:00:46;;;;;;;77.78;58.55;;;;;;;;;;4955421;28;20043;-61
2022/03/17 06:03:15;;;;;;;81.25;58.78;;;;;;;;;;4955684;29;20063;-61
2022/03/17 06:05:43;;;;;;;80.53;58.92;;;;;;;;;;4959061;28;20087;-61
2022/03/17 06:08:12;;;;;;;79.85;57.85;;;;;;;;;;4958203;28;20074;-61
2022/03/17 06:10:41;;;;;;;79.65;59.15;;;;;;;;;;4954705;28;20047;-61
2022/03/17 06:13:10;;;;;;;80.60;59.70;;;;;;;;;;4958810;28;20062;-61
2022/03/17 06:15:40;;;;;;;75.45;60.22;;;;;;;;;;4959031;28;20079;-61
2022/03/17 06:18:08;;;;;;;80.28;58.33;;;;;;;;;;4958817;28;20054;-61
2022/03/17 06:20:37;;;;;;;80.63;60.80;;;;;;;;;;4950389;28;20517;-62
2022/03/17 06:23:07;;;;;;;83.53;60.33;;;;;;;;;;4958452;29;20050;-62
2022/03/17 06:25:36;;;;;;;80.97;58.63;;;;;;;;;;4958359;28;20094;-61
2022/03/17 06:28:08;;;;;;;93.85;63.60;;;;;;;;;;4958654;28;20200;-61
2022/03/17 06:30:37;;;;;;;83.57;62.33;;;;;;;;;;4958393;29;20051;-61
2022/03/17 06:33:09;;;;;;;79.88;60.38;;;;;;;;;;4958103;28;20051;-61
2022/03/17 06:35:41;;;;;;;81.63;61.80;;;;;;;;;;4958310;28;20055;-61
2022/03/17 06:38:09;;;;;;;82.43;60.70;;;;;;;;;;4959426;28;20055;-62
2022/03/17 06:40:37;;;;;;;78.82;61.08;;;;;;;;;;4958280;29;20448;-62
2022/03/17 06:43:06;;;;;;;85.45;60.45;;;;;;;;;;4958259;28;20110;-63
2022/03/17 06:45:37;;;;;;;78.40;56.83;;;;;;;;;;4955183;28;20058;-62
2022/03/17 06:48:05;;;;;;;78.78;60.17;;;;;;;;;;4954986;28;20542;-60
2022/03/17 06:50:35;;;;;;;79.28;59.10;;;;;;;;;;4952930;29;20043;-61
2022/03/17 06:53:05;;;;;;;81.45;61.63;;;;;;;;;;4955061;29;20126;-62
2022/03/17 06:55:33;;;;;;;90.25;63.05;;;;;;;;;;4957116;29;20415;-68
2022/03/17 06:58:02;;;;;;;81.53;60.47;;;;;;;;;;4955334;29;20051;-68
2022/03/17 07:00:31;;;;;;;81.20;62.28;;;;;;;;;;4957389;28;20055;-68
2022/03/17 07:02:59;;;;;;;87.57;62.67;;;;;;;;;;4954967;28;20142;-68
2022/03/17 07:05:28;;;;;;;90.40;63.20;;;;;;;;;;4956563;28;20067;-67
2022/03/17 07:07:57;;;;;;;78.32;61.03;;;;;;;;;;4956599;28;20131;-67
2022/03/17 07:10:27;;;;;;;81.78;63.00;;;;;;;;;;4957384;28;20066;-67
2022/03/17 07:12:55;;;;;;;80.15;59.90;;;;;;;;;;4957598;28;20106;-67
2022/03/17 07:15:23;;;;;;;86.35;63.25;;;;;;;;;;4956905;28;20039;-67
2022/03/17 07:17:52;;;;;;;80.88;62.55;;;;;;;;;;4957050;28;20055;-69
2022/03/17 07:20:23;;;;;;;79.55;60.88;;;;;;;;;;4965917;28;20048;-68
2022/03/17 07:22:52;;;;;;;91.40;64.95;;;;;;;;;;4951624;29;20057;-68
2022/03/17 07:25:22;;;;;;;88.75;64.05;;;;;;;;;;4957670;29;20067;-67
2022/03/17 07:27:52;;;;;;;85.60;64.07;;;;;;;;;;4957427;28;20059;-68
2022/03/17 07:30:22;;;;;;;91.30;63.28;;;;;;;;;;4955673;28;20533;-68
2022/03/17 07:32:55;;;;;;;81.13;59.92;;;;;;;;;;4956651;29;20473;-68
2022/03/17 07:35:25;;;;;;;87.78;61.88;;;;;;;;;;4956940;28;20486;-66
2022/03/17 07:37:54;;;;;;;85.40;63.00;;;;;;;;;;4954785;29;20383;-67
2022/03/17 07:40:21;;;;;;;84.32;62.17;;;;;;;;;;4954878;28;20521;-64
2022/03/17 07:42:49;;;;;;;84.68;63.22;;;;;;;;;;4956609;29;20645;-65
2022/03/17 07:45:17;;;;;;;87.90;59.78;;;;;;;;;;4957076;28;20134;-65
2022/03/17 07:48:05;;;;;;;88.30;63.30;;;;;;;;;;4922082;28;20063;-64
2022/03/17 07:50:35;;;;;;;87.60;61.35;;;;;;;;;;4939930;29;20459;-65
2022/03/17 07:53:04;;;;;;;82.80;60.85;;;;;;;;;;4956862;29;20081;-64
2022/03/17 07:55:33;;;;;;;80.03;60.40;;;;;;;;;;4955849;29;20078;-62
2022/03/17 07:58:02;;;;;;;85.68;61.35;;;;;;;;;;4953870;29;20066;-63
2022/03/17 08:00:30;;;;;;;83.80;62.08;;;;;;;;;;4953159;29;20058;-64
2022/03/17 08:03:01;;;;;;;81.07;63.00;;;;;;;;;;4956724;29;20055;-64
2022/03/17 08:05:30;;;;;;;87.03;61.22;;;;;;;;;;4952888;29;20051;-65
2022/03/17 08:08:00;;;;;;;83.97;64.03;;;;;;;;;;4952236;29;20039;-65
2022/03/17 08:10:29;;;;;;;101.47;64.43;;;;;;;;;;4956259;29;20402;-64
2022/03/17 08:12:58;;;;;;;80.40;61.25;;;;;;;;;;4956075;29;20118;-64
2022/03/17 08:15:27;;;;;;;86.25;64.95;;;;;;;;;;4955957;28;20102;-63
2022/03/17 08:17:55;;;;;;;99.75;64.57;;;;;;;;;;4955702;28;20463;-63
2022/03/17 08:20:25;;;;;;;79.13;61.85;;;;;;;;;;4954304;29;20043;-64
2022/03/17 08:22:55;;;;;;;90.25;65.35;;;;;;;;;;4954832;29;20077;-71
2022/03/17 08:25:22;;;;;;;85.85;62.60;;;;;;;;;;4952865;28;20134;-69
2022/03/17 08:27:52;;;;;;;85.82;65.40;;;;;;;;;;4953952;28;20055;-65
2022/03/17 08:30:20;;;;;;;85.13;62.95;;;;;;;;;;4954112;29;20054;-64
2022/03/17 08:32:49;;;;;;;87.65;64.35;;;;;;;;;;4953672;28;20130;-64
2022/03/17 08:35:17;;;;;;;79.72;62.40;;;;;;;;;;4953683;28;20051;-64
2022/03/17 08:37:46;;;;;;;91.50;66.43;;;;;;;;;;4954043;29;20082;-64
2022/03/17 08:40:14;;;;;;;85.43;63.38;;;;;;;;;;4953968;28;20051;-64
2022/03/17 08:42:44;;;;;;;83.53;63.40;;;;;;;;;;4954116;28;20586;-63
2022/03/17 08:50:47;;;;;;;76.07;61.35;;;;;;;;;;4951886;29;20489;-66
2022/03/17 08:53:16;;;;;;;76.40;60.85;;;;;;;;;;4953698;28;20051;-66
2022/03/17 08:55:45;;;;;;;80.95;59.72;;;;;;;;;;4950927;29;20066;-65
2022/03/17 08:58:13;;;;;;;77.63;58.72;;;;;;;;;;4953585;28;20062;-65
2022/03/17 09:00:42;;;;;;;83.90;61.30;;;;;;;;;;4953426;29;20117;-66
2022/03/17 09:03:09;;;;;;;82.07;61.17;;;;;;;;;;4953364;28;20499;-65
2022/03/17 09:05:39;;;;;;;78.88;58.05;;;;;;;;;;4953233;28;20131;-66
2022/03/17 09:08:06;;;;;;;80.85;59.00;;;;;;;;;;4953256;28;20467;-66
2022/03/17 09:10:36;;;;;;;77.25;57.38;;;;;;;;;;4953107;29;20055;-66
2022/03/17 09:13:10;;;;;;;79.35;58.97;;;;;;;;;;4954992;28;20055;-66
2022/03/17 09:15:40;;;;;;;74.47;57.47;;;;;;;;;;4954885;29;20047;-65
2022/03/17 09:18:10;;;;;;;82.28;62.38;;;;;;;;;;4954079;28;20051;-65
2022/03/17 09:20:40;;;;;;;77.70;57.92;;;;;;;;;;4953856;28;20046;-65
2022/03/17 09:23:09;;;;;;;74.07;58.03;;;;;;;;;;4953593;28;20059;-64
2022/03/17 09:25:37;;;;;;;75.57;58.30;;;;;;;;;;4954070;29;20437;-65
2022/03/17 09:28:07;;;;;;;73.65;55.65;;;;;;;;;;4954212;29;20066;-66
2022/03/17 09:30:35;;;;;;;74.75;57.45;;;;;;;;;;4952562;28;20047;-65
2022/03/17 09:33:05;;;;;;;73.18;55.40;;;;;;;;;;4952425;28;20073;-66
2022/03/17 09:35:34;;;;;;;74.40;58.03;;;;;;;;;;4953205;28;20058;-66
2022/03/17 09:38:05;;;;;;;74.95;54.55;;;;;;;;;;4954107;28;20086;-65
2022/03/17 09:40:36;;;;;;;78.40;57.10;;;;;;;;;;4954211;28;20055;-63
2022/03/17 09:43:19;;;;;;;74.15;55.97;;;;;;;;;;4954373;28;20057;-66
2022/03/17 09:45:50;;;;;;;69.38;54.55;;;;;;;;;;4953273;29;20055;-65
2022/03/17 09:48:24;;;;;;;75.72;56.22;;;;;;;;;;4954230;28;20047;-68
2022/03/17 09:50:56;;;;;;;76.13;55.85;;;;;;;;;;4953861;28;20047;-66
2022/03/17 09:53:31;;;;;;;79.72;53.90;;;;;;;;;;4952449;29;20063;-69
2022/03/17 09:56:00;;;;;;;71.78;55.05;;;;;;;;;;4954049;28;20499;-68
2022/03/17 09:58:29;;;;;;;68.65;52.63;;;;;;;;;;4952565;29;20047;-68
2022/03/17 10:00:59;;;;;;;63.85;53.20;;;;;;;;;;4953606;29;20067;-68
2022/03/17 10:03:29;;;;;;;73.97;54.03;;;;;;;;;;4951894;28;20055;-66
2022/03/17 10:05:59;;;;;;;70.55;54.13;;;;;;;;;;4952615;28;20142;-68
2022/03/17 10:08:29;;;;;;;70.07;54.72;;;;;;;;;;4952693;28;20047;-69
2022/03/17 10:10:57;;;;;;;68.15;52.78;;;;;;;;;;4952378;28;20463;-68
2022/03/17 10:13:28;;;;;;;69.93;52.55;;;;;;;;;;4952425;28;20043;-68
2022/03/17 10:16:11;;;;;;;69.40;49.97;;;;;;;;;;4950322;28;20138;-68
2022/03/17 10:18:43;;;;;;;67.55;53.47;;;;;;;;;;4953997;28;20487;-68
2022/03/17 10:21:24;;;;;;;66.38;53.40;;;;;;;;;;4953589;29;20058;-68
2022/03/17 10:24:01;;;;;;;61.00;50.88;;;;;;;;;;4954010;29;20078;-68
2022/03/17 10:26:32;;;;;;;65.38;49.90;;;;;;;;;;4952332;29;20047;-69
2022/03/17 10:29:10;;;;;;;65.32;48.58;;;;;;;;;;4953751;29;20047;-68
2022/03/17 10:31:52;;;;;;;60.10;46.60;;;;;;;;;;4952799;29;20051;-69
2022/03/17 10:34:21;;;;;;;66.88;49.08;;;;;;;;;;4952658;29;20047;-68
2022/03/17 10:36:50;;;;;;;62.25;51.05;;;;;;;;;;4953913;29;20130;-68
2022/03/17 10:39:20;;;;;;;71.57;50.47;;;;;;;;;;4953187;29;20963;-68
2022/03/17 10:41:48;;;;;;;64.20;51.25;;;;;;;;;;4952523;28;20063;-66
2022/03/17 10:44:19;;;;;;;67.10;49.85;;;;;;;;;;4952076;29;20106;-68
2022/03/17 10:47:01;;;;;;;59.67;49.17;;;;;;;;;;4953998;28;20067;-71
2022/03/17 10:49:31;;;;;;;58.25;47.00;;;;;;;;;;4955326;29;20074;-69
2022/03/17 10:52:00;;;;;;;58.20;46.83;;;;;;;;;;4956135;28;20058;-69
2022/03/17 10:54:29;;;;;;;61.55;47.45;;;;;;;;;;4955890;28;20085;-68
2022/03/17 10:57:03;;;;;;;62.30;47.65;;;;;;;;;;4955367;29;20557;-67
2022/03/17 11:00:00;;;;;;;;;;;;;;;;;;4955603;29;20091;-65
2022/03/17 11:02:29;;;;;;;57.95;46.40;;;;;;;;;;4948507;28;19926;-68
2022/03/17 11:05:06;;;;;;;65.47;46.80;;;;;;;;;;4953355;29;20528;-68
2022/03/17 11:07:35;;;;;;;53.20;43.13;;;;;;;;;;4956239;28;20059;-68
2022/03/17 11:10:05;;;;;;;55.10;43.55;;;;;;;;;;4957122;28;20482;-68
2022/03/17 11:12:34;;;;;;;55.88;44.90;;;;;;;;;;4956209;28;20082;-69
2022/03/17 11:15:03;;;;;;;51.65;42.78;;;;;;;;;;4956797;28;20039;-68
2022/03/17 11:17:48;;;;;;;51.13;39.97;;;;;;;;;;4956636;29;20047;-69
2022/03/17 11:20:20;;;;;;;51.38;39.83;;;;;;;;;;4955569;29;20102;-71
2022/03/17 11:23:05;;;;;;;58.40;44.33;;;;;;;;;;4955637;29;20055;-66
2022/03/17 11:25:34;;;;;;;54.22;39.80;;;;;;;;;;4957089;28;20051;-67
2022/03/17 11:28:03;;;;;;;55.53;42.88;;;;;;;;;;4956954;28;20534;-66
2022/03/17 11:31:01;;;;;;;57.10;42.10;;;;;;;;;;4956123;29;20087;-67
2022/03/17 11:33:37;;;;;;;48.00;39.95;;;;;;;;;;4952372;29;20055;-65
2022/03/17 11:36:10;;;;;;;;;;;;;;;;;;4957638;28;20087;-66
2022/03/17 11:39:15;;;;;;;48.20;37.67;;;;;;;;;;4954977;29;20025;-67
2022/03/17 11:41:45;;;;;;;53.50;41.35;;;;;;;;;;4956446;28;20137;-66
2022/03/17 11:44:14;;;;;;;46.83;38.45;;;;;;;;;;4955409;28;20396;-66
2022/03/17 11:46:45;;;;;;;50.13;40.05;;;;;;;;;;4955345;29;20145;-66
2022/03/17 11:49:27;;;;;;;48.03;39.70;;;;;;;;;;4955373;29;20122;-66
2022/03/17 11:52:02;;;;;;;47.45;38.63;;;;;;;;;;4954572;29;20130;-64
2022/03/17 11:54:32;;;;;;;47.45;37.35;;;;;;;;;;4955831;29;20098;-65
2022/03/17 11:57:05;;;;;;;43.65;37.90;;;;;;;;;;4954808;29;20395;-65
2022/03/17 11:59:58;;;;;;;56.50;38.65;;;;;;;;;;4953118;28;20503;-65
2022/03/17 12:02:29;;;;;;;48.67;37.17;;;;;;;;;;4955118;28;20466;-66
2022/03/17 12:05:11;;;;;;;45.50;36.90;;;;;;;;;;4954851;29;20462;-66
2022/03/17 12:07:47;;;;;;;41.03;34.67;;;;;;;;;;4954562;29;21475;-65
2022/03/17 12:10:52;;;;;;;53.47;37.03;;;;;;;;;;4956378;29;20134;-66
2022/03/17 12:13:41;;;;;;;43.95;37.63;;;;;;;;;;4956512;29;20055;-66
2022/03/17 12:16:13;;;;;;;49.83;36.38;;;;;;;;;;4954086;29;20047;-67
2022/03/17 12:19:02;;;;;;;44.85;35.90;;;;;;;;;;4956084;28;20065;-66
2022/03/17 12:21:57;;;;;;;45.50;36.85;;;;;;;;;;4956097;28;20051;-66
2022/03/17 12:25:02;;;;;;;42.90;35.53;;;;;;;;;;4956202;29;20054;-67
2022/03/17 12:27:34;;;;;;;47.30;35.05;;;;;;;;;;4950154;28;20051;-67
2022/03/17 12:30:15;;;;;;;39.97;35.58;;;;;;;;;;4956738;28;20126;-65
2022/03/17 12:32:48;;;;;;;47.47;36.92;;;;;;;;;;4956687;28;20508;-66
2022/03/17 12:35:22;;;;;;;46.38;35.85;;;;;;;;;;4956180;28;20066;-68
2022/03/17 12:37:57;;;;;;;43.88;34.20;;;;;;;;;;4956618;28;20071;-67
2022/03/17 12:40:26;;;;;;;49.97;37.13;;;;;;;;;;4956643;28;20051;-65
2022/03/17 12:42:58;;;;;;;45.03;36.20;;;;;;;;;;4955528;28;20106;-65
2022/03/17 12:45:28;;;;;;;41.65;35.03;;;;;;;;;;4956539;28;20114;-64
2022/03/17 12:47:56;;;;;;;45.83;35.67;;;;;;;;;;4956176;28;20509;-64
2022/03/17 12:50:28;;;;;;;53.50;36.50;;;;;;;;;;4956217;28;20054;-64
2022/03/17 12:52:57;;;;;;;42.03;34.55;;;;;;;;;;4955952;28;20055;-63
2022/03/17 12:55:29;;;;;;;43.92;34.40;;;;;;;;;;4953923;28;20055;-63
2022/03/17 12:57:57;;;;;;;43.45;36.97;;;;;;;;;;4953573;28;20055;-63
2022/03/17 13:00:27;;;;;;;47.05;36.97;;;;;;;;;;4955851;28;20047;-63
2022/03/17 13:02:57;;;;;;;44.22;36.25;;;;;;;;;;4955798;28;20126;-63
2022/03/17 13:08:16;;;;;;;48.38;37.63;;;;;;;;;;4954490;29;20502;-63
2022/03/17 13:16:18;;;;;;;51.00;36.20;;;;;;;;;;4955929;28;20043;-63
2022/03/17 13:18:51;;;;;;;47.20;33.42;;;;;;;;;;4955551;29;20051;-64
2022/03/17 13:21:24;;;;;;;46.15;35.92;;;;;;;;;;4955381;28;20047;-63
2022/03/17 13:23:53;;;;;;;42.30;34.00;;;;;;;;;;4956251;28;20094;-64
2022/03/17 13:26:27;;;;;;;45.75;33.92;;;;;;;;;;4946973;28;20058;-64
2022/03/17 13:29:20;;;;;;;46.78;33.97;;;;;;;;;;4947118;28;20135;-64
2022/03/17 13:31:48;;;;;;;42.58;33.90;;;;;;;;;;4950542;29;20474;-64
2022/03/17 13:34:33;;;;;;;47.33;34.40;;;;;;;;;;4954781;28;20055;-64
2022/03/17 13:37:09;;;;;;;39.80;31.30;;;;;;;;;;4954356;28;20050;-64
2022/03/17 13:39:38;;;;;;;39.17;32.45;;;;;;;;;;4955254;28;20134;-64
2022/03/17 13:42:12;;;;;;;35.65;30.20;;;;;;;;;;4954704;28;20142;-66
2022/03/17 13:44:47;;;;;;;38.03;31.30;;;;;;;;;;4953913;29;20484;-64
2022/03/17 13:47:21;;;;;;;39.67;31.70;;;;;;;;;;4937257;29;20048;-64
2022/03/17 13:50:30;;;;;;;40.65;30.88;;;;;;;;;;4955423;28;20051;-65
2022/03/17 13:53:03;;;;;;;39.80;30.08;;;;;;;;;;4933528;29;20063;-65
2022/03/17 13:55:55;;;;;;;35.83;29.70;;;;;;;;;;4925734;29;20060;-65
2022/03/17 13:58:49;;;;;;;27.95;24.23;;;;;;;;;;4952894;29;20054;-66
2022/03/17 14:01:20;;;;;;;31.67;27.58;;;;;;;;;;4952158;29;20406;-64
2022/03/17 14:04:31;;;;;;;40.60;28.83;;;;;;;;;;4955058;28;20047;-65
2022/03/17 14:07:00;;;;;;;33.42;27.75;;;;;;;;;;4953911;28;20130;-65
2022/03/17 14:09:28;;;;;;;33.85;28.08;;;;;;;;;;4952642;29;20051;-65
2022/03/17 14:11:58;;;;;;;42.72;29.40;;;;;;;;;;4953640;29;20474;-65
2022/03/17 14:14:34;;;;;;;35.88;28.77;;;;;;;;;;4954871;28;20081;-65
2022/03/17 14:17:03;;;;;;;36.33;28.98;;;;;;;;;;4955079;28;20185;-64
2022/03/17 14:19:31;;;;;;;33.45;27.73;;;;;;;;;;4954744;28;20055;-64
2022/03/17 14:24:49;;;;;;;45.78;31.27;;;;;;;;;;4958206;28;20055;-64
2022/03/17 14:27:18;;;;;;;37.50;28.42;;;;;;;;;;4950218;29;20384;-64
2022/03/17 14:29:46;;;;;;;36.78;32.30;;;;;;;;;;4958591;29;20062;-64
2022/03/17 14:32:14;;;;;;;46.72;33.42;;;;;;;;;;4958116;29;20062;-63
2022/03/17 14:34:43;;;;;;;37.92;32.67;;;;;;;;;;4951366;29;20527;-63
2022/03/17 14:37:12;;;;;;;43.42;32.92;;;;;;;;;;4951203;29;20043;-63
2022/03/17 14:39:43;;;;;;;41.15;31.73;;;;;;;;;;4957386;28;20134;-63
2022/03/17 14:42:14;;;;;;;38.42;33.38;;;;;;;;;;4958174;28;20051;-64
2022/03/17 14:44:42;;;;;;;42.92;33.97;;;;;;;;;;4958590;28;20392;-64
2022/03/17 14:47:10;;;;;;;36.15;31.73;;;;;;;;;;4957181;29;20051;-63
2022/03/17 14:49:39;;;;;;;38.10;30.83;;;;;;;;;;4957671;29;20051;-63
2022/03/17 14:52:09;;;;;;;45.08;35.97;;;;;;;;;;4957839;28;20050;-63
2022/03/17 14:54:37;;;;;;;44.25;35.50;;;;;;;;;;4958175;28;20102;-63
2022/03/17 14:57:06;;;;;;;48.38;34.78;;;;;;;;;;4958175;29;20083;-63
2022/03/17 14:59:35;;;;;;;43.75;34.80;;;;;;;;;;4958184;29;20054;-63
2022/03/17 15:02:05;;;;;;;39.30;34.63;;;;;;;;;;4958249;29;20059;-63
2022/03/17 15:04:35;;;;;;;43.72;34.47;;;;;;;;;;4958084;29;20402;-63
2022/03/17 15:07:09;;;;;;;39.17;34.38;;;;;;;;;;4958764;29;20083;-63
2022/03/17 15:09:38;;;;;;;44.10;35.67;;;;;;;;;;4957460;28;20499;-63